Terminal Aerodrome Forecast
Issued by NWS

Home | Current Version | Previous Version | Graphics & Text | Print | Product List | Glossary On
Versions: 1 2 3 4 5 6 7 8 9 10 11 12 13 14 15 16
000
FTUS43 KBIS 142300
TAFDIK
TAF
KDIK 142336Z 1500/1524 33016G21KT P6SM -FZDZ OVC006
     FM150600 34016KT P6SM OVC005
     FM151000 34016KT P6SM OVC015=

USA.gov is the U.S. government's official web portal to all federal, state and local government web resources and services.